Time;durP1;ratioP1;P1;durP2;ratioP2;P2;SDS_P1;SDS_P2;PMS_P1;PMS_P2;Temp;Humidity;BMP_temperature;BMP_pressure;BME280_temperature;BME280_humidity;BME280_pressure;Samples;Min_cycle;Max_cycle;Signal;HPM_P1;HPM_P2
2021/10/13 00:00:02;;;;;;;3.65;2.35;;;;;;;6.98;94.31836;95250.81;;;;
2021/10/13 00:01:04;;;;;;;3.6;2.75;;;;;;;6.99;94.42578;95262.25;;;;
2021/10/13 00:02:05;;;;;;;3.6;2.75;;;;;;;6.99;94.42578;95262.25;;;;
2021/10/13 00:03:05;;;;;;;3.6;2.75;;;;;;;6.99;94.42578;95262.25;;;;
2021/10/13 00:04:06;;;;;;;3.6;2.75;;;;;;;6.99;94.42578;95262.25;;;;
2021/10/13 00:05:06;;;;;;;3.6;2.75;;;;;;;6.99;94.42578;95262.25;;;;
2021/10/13 00:06:09;;;;;;;3.6;2.75;;;;;;;6.99;94.42578;95262.25;;;;
2021/10/13 00:07:09;;;;;;;3.6;2.75;;;;;;;6.99;94.42578;95262.25;;;;
2021/10/13 00:08:10;;;;;;;3.6;2.75;;;;;;;6.99;94.42578;95262.25;;;;
2021/10/13 00:09:10;;;;;;;3.6;2.75;;;;;;;6.99;94.42578;95262.25;;;;
2021/10/13 00:10:11;;;;;;;3.6;2.75;;;;;;;6.99;94.42578;95262.25;;;;
2021/10/13 00:11:12;;;;;;;2.7;2.4;;;;;;;7.01;94.58789;95280.73;;;;
2021/10/13 00:12:12;;;;;;;2.7;2.4;;;;;;;7.01;94.58789;95280.73;;;;
2021/10/13 00:13:13;;;;;;;2.7;2.4;;;;;;;7.01;94.58789;95280.73;;;;
2021/10/13 00:14:14;;;;;;;2.7;2.4;;;;;;;7.01;94.58789;95280.73;;;;
2021/10/13 00:15:15;;;;;;;2.7;2.4;;;;;;;7.01;94.58789;95280.73;;;;
2021/10/13 00:16:16;;;;;;;2.7;2.4;;;;;;;7.01;94.58789;95280.73;;;;
2021/10/13 00:17:16;;;;;;;2.7;2.4;;;;;;;7.01;94.58789;95280.73;;;;
2021/10/13 00:18:17;;;;;;;2.7;2.4;;;;;;;7.01;94.58789;95280.73;;;;
2021/10/13 00:19:18;;;;;;;2.7;2.4;;;;;;;7.01;94.58789;95280.73;;;;
2021/10/13 00:20:18;;;;;;;2.7;2.4;;;;;;;7.01;94.58789;95280.73;;;;
2021/10/13 00:21:19;;;;;;;2.7;2.4;;;;;;;7.01;94.58789;95280.73;;;;
2021/10/13 00:22:19;;;;;;;2.7;2.4;;;;;;;7.01;94.58789;95280.73;;;;
2021/10/13 00:23:20;;;;;;;2.7;2.4;;;;;;;7.01;94.58789;95280.73;;;;
2021/10/13 00:24:21;;;;;;;2.7;2.4;;;;;;;7.01;94.58789;95280.73;;;;
2021/10/13 00:25:21;;;;;;;2.7;2.4;;;;;;;7.01;94.58789;95280.73;;;;
2021/10/13 00:26:22;;;;;;;2.7;2.4;;;;;;;7.01;94.58789;95280.73;;;;
2021/10/13 00:27:23;;;;;;;2.7;2.4;;;;;;;7.01;94.58789;95280.73;;;;
2021/10/13 00:28:23;;;;;;;2.7;2.4;;;;;;;7.01;94.58789;95280.73;;;;
2021/10/13 00:29:24;;;;;;;2.7;2.4;;;;;;;7.01;94.58789;95280.73;;;;
2021/10/13 00:30:25;;;;;;;2.7;2.4;;;;;;;7.01;94.58789;95280.73;;;;
2021/10/13 00:31:25;;;;;;;2.7;2.4;;;;;;;7.01;94.58789;95280.73;;;;
2021/10/13 00:32:28;;;;;;;4.900001;2.85;;;;;;;7.06;95.02051;95293.91;;;;
2021/10/13 00:33:28;;;;;;;4.900001;2.85;;;;;;;7.06;95.02051;95293.91;;;;
2021/10/13 00:34:29;;;;;;;4.900001;2.85;;;;;;;7.06;95.02051;95293.91;;;;
2021/10/13 00:35:29;;;;;;;4.900001;2.85;;;;;;;7.06;95.02051;95293.91;;;;
2021/10/13 00:36:30;;;;;;;4.900001;2.85;;;;;;;7.06;95.02051;95293.91;;;;
2021/10/13 00:37:30;;;;;;;4.900001;2.85;;;;;;;7.06;95.02051;95293.91;;;;
2021/10/13 00:38:31;;;;;;;4.900001;2.85;;;;;;;7.06;95.02051;95293.91;;;;
2021/10/13 00:39:31;;;;;;;4.900001;2.85;;;;;;;7.06;95.02051;95293.91;;;;
2021/10/13 00:40:32;;;;;;;4.900001;2.85;;;;;;;7.06;95.02051;95293.91;;;;
2021/10/13 00:41:33;;;;;;;4.900001;2.85;;;;;;;7.06;95.02051;95293.91;;;;
2021/10/13 00:42:33;;;;;;;4.900001;2.85;;;;;;;7.06;95.02051;95293.91;;;;
2021/10/13 00:43:34;;;;;;;4.05;3;;;;;;;7.12;95.29785;95310.52;;;;
2021/10/13 00:44:34;;;;;;;4.05;3;;;;;;;7.12;95.29785;95310.52;;;;
2021/10/13 00:45:35;;;;;;;4.05;3;;;;;;;7.12;95.29785;95310.52;;;;
2021/10/13 00:46:35;;;;;;;4.05;3;;;;;;;7.12;95.29785;95310.52;;;;
2021/10/13 00:47:36;;;;;;;4.05;3;;;;;;;7.12;95.29785;95310.52;;;;
2021/10/13 00:48:37;;;;;;;4.05;3;;;;;;;7.12;95.29785;95310.52;;;;
2021/10/13 00:49:37;;;;;;;4.05;3;;;;;;;7.12;95.29785;95310.52;;;;
2021/10/13 00:50:38;;;;;;;4.05;3;;;;;;;7.12;95.29785;95310.52;;;;
2021/10/13 00:51:38;;;;;;;4.05;3;;;;;;;7.12;95.29785;95310.52;;;;
2021/10/13 00:52:39;;;;;;;4.05;3;;;;;;;7.12;95.29785;95310.52;;;;
2021/10/13 00:53:43;;;;;;;3.4;3.1;;;;;;;7.13;95.34277;95334.05;;;;
2021/10/13 00:54:44;;;;;;;3.4;3.1;;;;;;;7.13;95.34277;95334.05;;;;
2021/10/13 00:55:45;;;;;;;3.4;3.1;;;;;;;7.13;95.34277;95334.05;;;;
2021/10/13 00:56:46;;;;;;;3.4;3.1;;;;;;;7.13;95.34277;95334.05;;;;
2021/10/13 00:57:47;;;;;;;3.4;3.1;;;;;;;7.13;95.34277;95334.05;;;;
2021/10/13 00:58:49;;;;;;;3.4;3.1;;;;;;;7.13;95.34277;95334.05;;;;
2021/10/13 00:59:50;;;;;;;3.4;3.1;;;;;;;7.13;95.34277;95334.05;;;;
2021/10/13 01:00:50;;;;;;;3.4;3.1;;;;;;;7.13;95.34277;95334.05;;;;
2021/10/13 01:01:57;;;;;;;3.4;3.1;;;;;;;7.13;95.34277;95334.05;;;;
2021/10/13 01:03:02;;;;;;;3.4;3.1;;;;;;;7.13;95.34277;95334.05;;;;
2021/10/13 01:04:13;;;;;;;3.4;3.1;;;;;;;7.13;95.34277;95334.05;;;;
2021/10/13 01:05:26;;;;;;;3.9;3.4;;;;;;;7.09;95.53418;95348.5;;;;
2021/10/13 01:06:40;;;;;;;3.9;3.4;;;;;;;7.09;95.53418;95348.5;;;;
2021/10/13 01:07:47;;;;;;;3.9;3.4;;;;;;;7.09;95.53418;95348.5;;;;
2021/10/13 01:08:56;;;;;;;3.9;3.4;;;;;;;7.09;95.53418;95348.5;;;;
2021/10/13 01:10:02;;;;;;;3.9;3.4;;;;;;;7.09;95.53418;95348.5;;;;
2021/10/13 01:11:11;;;;;;;3.9;3.4;;;;;;;7.09;95.53418;95348.5;;;;
2021/10/13 01:12:23;;;;;;;3.9;3.4;;;;;;;7.09;95.53418;95348.5;;;;
2021/10/13 01:13:37;;;;;;;3.9;3.4;;;;;;;7.09;95.53418;95348.5;;;;
2021/10/13 01:14:50;;;;;;;3.9;3.4;;;;;;;7.09;95.53418;95348.5;;;;
2021/10/13 01:15:57;;;;;;;3.9;3.4;;;;;;;7.09;95.53418;95348.5;;;;
2021/10/13 01:17:12;;;;;;;3.9;3.4;;;;;;;7.09;95.53418;95348.5;;;;
2021/10/13 01:18:22;;;;;;;3.9;3.4;;;;;;;7.09;95.53418;95348.5;;;;
2021/10/13 01:19:29;;;;;;;3.9;3.4;;;;;;;7.09;95.53418;95348.5;;;;
2021/10/13 01:20:44;;;;;;;3.9;3.4;;;;;;;7.09;95.53418;95348.5;;;;
2021/10/13 01:21:57;;;;;;;3.9;3.4;;;;;;;7.09;95.53418;95348.5;;;;
2021/10/13 01:23:15;;;;;;;3.9;3.4;;;;;;;7.09;95.53418;95348.5;;;;
2021/10/13 01:24:33;;;;;;;3.9;3.4;;;;;;;7.09;95.53418;95348.5;;;;
2021/10/13 01:25:45;;;;;;;6.05;5.099999;;;;;;;7.08;96.05762;95368.34;;;;
2021/10/13 01:26:49;;;;;;;6.05;5.099999;;;;;;;7.08;96.05762;95368.34;;;;
2021/10/13 01:28:00;;;;;;;6.05;5.099999;;;;;;;7.08;96.05762;95368.34;;;;
2021/10/13 01:29:02;;;;;;;6.05;5.099999;;;;;;;7.08;96.05762;95368.34;;;;
2021/10/13 01:30:09;;;;;;;6.05;5.099999;;;;;;;7.08;96.05762;95368.34;;;;
2021/10/13 01:31:11;;;;;;;6.05;5.099999;;;;;;;7.08;96.05762;95368.34;;;;
2021/10/13 01:32:15;;;;;;;6.05;5.099999;;;;;;;7.08;96.05762;95368.34;;;;
2021/10/13 01:33:22;;;;;;;6.05;5.099999;;;;;;;7.08;96.05762;95368.34;;;;
2021/10/13 01:34:25;;;;;;;6.05;5.099999;;;;;;;7.08;96.05762;95368.34;;;;
2021/10/13 01:35:29;;;;;;;6.05;5.099999;;;;;;;7.08;96.05762;95368.34;;;;
2021/10/13 01:36:33;;;;;;;8.25;6.6;;;;;;;7.12;96.41602;95375.87;;;;
2021/10/13 01:37:38;;;;;;;8.25;6.6;;;;;;;7.12;96.41602;95375.87;;;;
2021/10/13 01:38:43;;;;;;;8.25;6.6;;;;;;;7.12;96.41602;95375.87;;;;
2021/10/13 01:39:47;;;;;;;8.25;6.6;;;;;;;7.12;96.41602;95375.87;;;;
2021/10/13 01:40:53;;;;;;;8.25;6.6;;;;;;;7.12;96.41602;95375.87;;;;
2021/10/13 01:41:58;;;;;;;8.25;6.6;;;;;;;7.12;96.41602;95375.87;;;;
2021/10/13 01:43:03;;;;;;;8.25;6.6;;;;;;;7.12;96.41602;95375.87;;;;
2021/10/13 01:44:05;;;;;;;8.25;6.6;;;;;;;7.12;96.41602;95375.87;;;;
2021/10/13 01:45:10;;;;;;;8.25;6.6;;;;;;;7.12;96.41602;95375.87;;;;
2021/10/13 01:46:12;;;;;;;8.25;6.6;;;;;;;7.12;96.41602;95375.87;;;;
2021/10/13 01:47:15;;;;;;;8.4;7.000001;;;;;;;7.08;96.72363;95394.26;;;;
2021/10/13 01:48:18;;;;;;;8.4;7.000001;;;;;;;7.08;96.72363;95394.26;;;;
2021/10/13 01:49:20;;;;;;;8.4;7.000001;;;;;;;7.08;96.72363;95394.26;;;;
2021/10/13 01:50:23;;;;;;;8.4;7.000001;;;;;;;7.08;96.72363;95394.26;;;;
2021/10/13 01:51:25;;;;;;;8.4;7.000001;;;;;;;7.08;96.72363;95394.26;;;;
2021/10/13 01:52:28;;;;;;;8.4;7.000001;;;;;;;7.08;96.72363;95394.26;;;;
2021/10/13 01:53:30;;;;;;;8.4;7.000001;;;;;;;7.08;96.72363;95394.26;;;;
2021/10/13 01:54:32;;;;;;;8.4;7.000001;;;;;;;7.08;96.72363;95394.26;;;;
2021/10/13 01:55:36;;;;;;;8.4;7.000001;;;;;;;7.08;96.72363;95394.26;;;;
2021/10/13 01:56:37;;;;;;;8.4;7.000001;;;;;;;7.08;96.72363;95394.26;;;;
2021/10/13 01:57:43;;;;;;;11.15;8.099999;;;;;;;7.01;97.06543;95397.5;;;;
2021/10/13 01:58:45;;;;;;;11.15;8.099999;;;;;;;7.01;97.06543;95397.5;;;;
2021/10/13 01:59:48;;;;;;;11.15;8.099999;;;;;;;7.01;97.06543;95397.5;;;;
2021/10/13 02:00:51;;;;;;;11.15;8.099999;;;;;;;7.01;97.06543;95397.5;;;;
2021/10/13 02:01:52;;;;;;;11.15;8.099999;;;;;;;7.01;97.06543;95397.5;;;;
2021/10/13 02:02:54;;;;;;;11.15;8.099999;;;;;;;7.01;97.06543;95397.5;;;;
2021/10/13 02:03:57;;;;;;;11.15;8.099999;;;;;;;7.01;97.06543;95397.5;;;;
2021/10/13 02:05:02;;;;;;;11.15;8.099999;;;;;;;7.01;97.06543;95397.5;;;;
2021/10/13 02:06:05;;;;;;;11.15;8.099999;;;;;;;7.01;97.06543;95397.5;;;;
2021/10/13 02:07:06;;;;;;;11.15;8.099999;;;;;;;7.01;97.06543;95397.5;;;;
2021/10/13 02:08:08;;;;;;;11.15;8.099999;;;;;;;7.01;97.06543;95397.5;;;;
2021/10/13 02:09:10;;;;;;;12.4;8.25;;;;;;;6.95;97.52539;95410.91;;;;
2021/10/13 02:10:14;;;;;;;12.4;8.25;;;;;;;6.95;97.52539;95410.91;;;;
2021/10/13 02:11:17;;;;;;;12.4;8.25;;;;;;;6.95;97.52539;95410.91;;;;
2021/10/13 02:12:23;;;;;;;12.4;8.25;;;;;;;6.95;97.52539;95410.91;;;;
2021/10/13 02:13:27;;;;;;;12.4;8.25;;;;;;;6.95;97.52539;95410.91;;;;
2021/10/13 02:14:31;;;;;;;12.4;8.25;;;;;;;6.95;97.52539;95410.91;;;;
2021/10/13 02:15:37;;;;;;;12.4;8.25;;;;;;;6.95;97.52539;95410.91;;;;
2021/10/13 02:16:40;;;;;;;12.4;8.25;;;;;;;6.95;97.52539;95410.91;;;;
2021/10/13 02:17:43;;;;;;;12.4;8.25;;;;;;;6.95;97.52539;95410.91;;;;
2021/10/13 02:18:47;;;;;;;12.4;8.25;;;;;;;6.95;97.52539;95410.91;;;;
2021/10/13 02:19:48;;;;;;;11.95;8.550001;;;;;;;6.89;97.83105;95420.12;;;;
2021/10/13 02:20:50;;;;;;;11.95;8.550001;;;;;;;6.89;97.83105;95420.12;;;;
2021/10/13 02:21:52;;;;;;;11.95;8.550001;;;;;;;6.89;97.83105;95420.12;;;;
2021/10/13 02:22:56;;;;;;;11.95;8.550001;;;;;;;6.89;97.83105;95420.12;;;;
2021/10/13 02:23:59;;;;;;;11.95;8.550001;;;;;;;6.89;97.83105;95420.12;;;;
2021/10/13 02:25:01;;;;;;;11.95;8.550001;;;;;;;6.89;97.83105;95420.12;;;;
2021/10/13 02:26:02;;;;;;;11.95;8.550001;;;;;;;6.89;97.83105;95420.12;;;;
2021/10/13 02:27:09;;;;;;;11.95;8.550001;;;;;;;6.89;97.83105;95420.12;;;;
2021/10/13 02:28:13;;;;;;;11.95;8.550001;;;;;;;6.89;97.83105;95420.12;;;;
2021/10/13 02:29:20;;;;;;;11.95;8.550001;;;;;;;6.89;97.83105;95420.12;;;;
2021/10/13 02:30:20;;;;;;;14.25;8.65;;;;;;;6.94;98.12598;95431.58;;;;
2021/10/13 02:31:21;;;;;;;14.25;8.65;;;;;;;6.94;98.12598;95431.58;;;;
2021/10/13 02:32:21;;;;;;;14.25;8.65;;;;;;;6.94;98.12598;95431.58;;;;
2021/10/13 02:33:22;;;;;;;14.25;8.65;;;;;;;6.94;98.12598;95431.58;;;;
2021/10/13 02:34:23;;;;;;;14.25;8.65;;;;;;;6.94;98.12598;95431.58;;;;
2021/10/13 02:35:23;;;;;;;14.25;8.65;;;;;;;6.94;98.12598;95431.58;;;;
2021/10/13 02:36:24;;;;;;;14.25;8.65;;;;;;;6.94;98.12598;95431.58;;;;
2021/10/13 02:37:25;;;;;;;14.25;8.65;;;;;;;6.94;98.12598;95431.58;;;;
2021/10/13 02:38:26;;;;;;;14.25;8.65;;;;;;;6.94;98.12598;95431.58;;;;
2021/10/13 02:39:26;;;;;;;14.25;8.65;;;;;;;6.94;98.12598;95431.58;;;;
2021/10/13 02:40:27;;;;;;;13.4;9.35;;;;;;;6.98;98.14453;95446.75;;;;
2021/10/13 02:41:27;;;;;;;13.4;9.35;;;;;;;6.98;98.14453;95446.75;;;;
2021/10/13 02:42:28;;;;;;;13.4;9.35;;;;;;;6.98;98.14453;95446.75;;;;
2021/10/13 02:43:28;;;;;;;13.4;9.35;;;;;;;6.98;98.14453;95446.75;;;;
2021/10/13 02:44:29;;;;;;;13.4;9.35;;;;;;;6.98;98.14453;95446.75;;;;
2021/10/13 02:45:30;;;;;;;13.4;9.35;;;;;;;6.98;98.14453;95446.75;;;;
2021/10/13 02:46:36;;;;;;;13.4;9.35;;;;;;;6.98;98.14453;95446.75;;;;
2021/10/13 02:47:44;;;;;;;13.4;9.35;;;;;;;6.98;98.14453;95446.75;;;;
2021/10/13 02:48:50;;;;;;;13.4;9.35;;;;;;;6.98;98.14453;95446.75;;;;
2021/10/13 02:50:00;;;;;;;13.4;9.35;;;;;;;6.98;98.14453;95446.75;;;;
2021/10/13 02:51:08;;;;;;;15;10.35;;;;;;;6.99;98.28418;95451.48;;;;
2021/10/13 02:52:13;;;;;;;15;10.35;;;;;;;6.99;98.28418;95451.48;;;;
2021/10/13 02:53:22;;;;;;;15;10.35;;;;;;;6.99;98.28418;95451.48;;;;
2021/10/13 02:54:31;;;;;;;15;10.35;;;;;;;6.99;98.28418;95451.48;;;;
2021/10/13 02:55:42;;;;;;;15;10.35;;;;;;;6.99;98.28418;95451.48;;;;
2021/10/13 02:56:47;;;;;;;15;10.35;;;;;;;6.99;98.28418;95451.48;;;;
2021/10/13 02:57:53;;;;;;;15;10.35;;;;;;;6.99;98.28418;95451.48;;;;
2021/10/13 02:59:02;;;;;;;15;10.35;;;;;;;6.99;98.28418;95451.48;;;;
2021/10/13 03:00:07;;;;;;;15;10.35;;;;;;;6.99;98.28418;95451.48;;;;
2021/10/13 03:01:10;;;;;;;15;10.35;;;;;;;6.99;98.28418;95451.48;;;;
2021/10/13 03:02:16;;;;;;;15.6;10.65;;;;;;;6.96;98.49902;95465.75;;;;
2021/10/13 03:03:24;;;;;;;15.6;10.65;;;;;;;6.96;98.49902;95465.75;;;;
2021/10/13 03:04:32;;;;;;;15.6;10.65;;;;;;;6.96;98.49902;95465.75;;;;
2021/10/13 03:05:38;;;;;;;15.6;10.65;;;;;;;6.96;98.49902;95465.75;;;;
2021/10/13 03:06:41;;;;;;;15.6;10.65;;;;;;;6.96;98.49902;95465.75;;;;
2021/10/13 03:07:49;;;;;;;15.6;10.65;;;;;;;6.96;98.49902;95465.75;;;;
2021/10/13 03:08:51;;;;;;;15.6;10.65;;;;;;;6.96;98.49902;95465.75;;;;
2021/10/13 03:09:52;;;;;;;15.6;10.65;;;;;;;6.96;98.49902;95465.75;;;;
2021/10/13 03:10:56;;;;;;;15.6;10.65;;;;;;;6.96;98.49902;95465.75;;;;
2021/10/13 03:11:58;;;;;;;15.6;10.65;;;;;;;6.96;98.49902;95465.75;;;;
2021/10/13 03:13:02;;;;;;;15.35;10.45;;;;;;;6.93;98.93457;95467.08;;;;
2021/10/13 03:14:06;;;;;;;15.35;10.45;;;;;;;6.93;98.93457;95467.08;;;;
2021/10/13 03:15:08;;;;;;;15.35;10.45;;;;;;;6.93;98.93457;95467.08;;;;
2021/10/13 03:16:11;;;;;;;15.35;10.45;;;;;;;6.93;98.93457;95467.08;;;;
2021/10/13 03:17:12;;;;;;;15.35;10.45;;;;;;;6.93;98.93457;95467.08;;;;
2021/10/13 03:18:15;;;;;;;15.35;10.45;;;;;;;6.93;98.93457;95467.08;;;;
2021/10/13 03:19:17;;;;;;;15.35;10.45;;;;;;;6.93;98.93457;95467.08;;;;
2021/10/13 03:20:19;;;;;;;15.35;10.45;;;;;;;6.93;98.93457;95467.08;;;;
2021/10/13 03:21:20;;;;;;;15.35;10.45;;;;;;;6.93;98.93457;95467.08;;;;
2021/10/13 03:22:24;;;;;;;15.35;10.45;;;;;;;6.93;98.93457;95467.08;;;;
2021/10/13 03:23:27;;;;;;;14.95;9.849999;;;;;;;6.85;99.08398;95471.34;;;;
2021/10/13 03:24:28;;;;;;;14.95;9.849999;;;;;;;6.85;99.08398;95471.34;;;;
2021/10/13 03:25:28;;;;;;;14.95;9.849999;;;;;;;6.85;99.08398;95471.34;;;;
2021/10/13 03:26:31;;;;;;;14.95;9.849999;;;;;;;6.85;99.08398;95471.34;;;;
2021/10/13 03:27:32;;;;;;;14.95;9.849999;;;;;;;6.85;99.08398;95471.34;;;;
2021/10/13 03:28:33;;;;;;;14.95;9.849999;;;;;;;6.85;99.08398;95471.34;;;;
2021/10/13 03:29:35;;;;;;;14.95;9.849999;;;;;;;6.85;99.08398;95471.34;;;;
2021/10/13 03:30:39;;;;;;;14.95;9.849999;;;;;;;6.85;99.08398;95471.34;;;;
2021/10/13 03:31:42;;;;;;;14.95;9.849999;;;;;;;6.85;99.08398;95471.34;;;;
2021/10/13 03:32:42;;;;;;;14.95;9.849999;;;;;;;6.85;99.08398;95471.34;;;;
2021/10/13 03:33:43;;;;;;;15.25;10.25;;;;;;;6.72;99.41113;95472.68;;;;
2021/10/13 03:34:47;;;;;;;15.25;10.25;;;;;;;6.72;99.41113;95472.68;;;;
2021/10/13 03:35:49;;;;;;;15.25;10.25;;;;;;;6.72;99.41113;95472.68;;;;
2021/10/13 03:36:50;;;;;;;15.25;10.25;;;;;;;6.72;99.41113;95472.68;;;;
2021/10/13 03:37:51;;;;;;;15.25;10.25;;;;;;;6.72;99.41113;95472.68;;;;
2021/10/13 03:38:52;;;;;;;15.25;10.25;;;;;;;6.72;99.41113;95472.68;;;;
2021/10/13 03:39:53;;;;;;;15.25;10.25;;;;;;;6.72;99.41113;95472.68;;;;
2021/10/13 03:40:54;;;;;;;15.25;10.25;;;;;;;6.72;99.41113;95472.68;;;;
2021/10/13 03:41:54;;;;;;;15.25;10.25;;;;;;;6.72;99.41113;95472.68;;;;
2021/10/13 03:42:59;;;;;;;15.25;10.25;;;;;;;6.72;99.41113;95472.68;;;;
2021/10/13 03:44:00;;;;;;;15.25;10.25;;;;;;;6.72;99.41113;95472.68;;;;
2021/10/13 03:45:01;;;;;;;13.6;10.85;;;;;;;6.72;99.82227;95495.48;;;;
2021/10/13 03:46:03;;;;;;;13.6;10.85;;;;;;;6.72;99.82227;95495.48;;;;
2021/10/13 03:47:03;;;;;;;13.6;10.85;;;;;;;6.72;99.82227;95495.48;;;;
2021/10/13 03:48:05;;;;;;;13.6;10.85;;;;;;;6.72;99.82227;95495.48;;;;
2021/10/13 03:49:05;;;;;;;13.6;10.85;;;;;;;6.72;99.82227;95495.48;;;;
2021/10/13 03:50:06;;;;;;;13.6;10.85;;;;;;;6.72;99.82227;95495.48;;;;
2021/10/13 03:51:09;;;;;;;13.6;10.85;;;;;;;6.72;99.82227;95495.48;;;;
2021/10/13 03:52:09;;;;;;;13.6;10.85;;;;;;;6.72;99.82227;95495.48;;;;
2021/10/13 03:53:10;;;;;;;13.6;10.85;;;;;;;6.72;99.82227;95495.48;;;;
2021/10/13 03:54:10;;;;;;;13.6;10.85;;;;;;;6.72;99.82227;95495.48;;;;
2021/10/13 03:55:11;;;;;;;16.5;11.4;;;;;;;6.83;100;95506.02;;;;
2021/10/13 03:56:14;;;;;;;16.5;11.4;;;;;;;6.83;100;95506.02;;;;
2021/10/13 03:57:15;;;;;;;16.5;11.4;;;;;;;6.83;100;95506.02;;;;
2021/10/13 03:58:15;;;;;;;16.5;11.4;;;;;;;6.83;100;95506.02;;;;
2021/10/13 03:59:16;;;;;;;16.5;11.4;;;;;;;6.83;100;95506.02;;;;
2021/10/13 04:00:16;;;;;;;16.5;11.4;;;;;;;6.83;100;95506.02;;;;
2021/10/13 04:01:20;;;;;;;16.5;11.4;;;;;;;6.83;100;95506.02;;;;
2021/10/13 04:02:20;;;;;;;16.5;11.4;;;;;;;6.83;100;95506.02;;;;
2021/10/13 04:03:21;;;;;;;16.5;11.4;;;;;;;6.83;100;95506.02;;;;
2021/10/13 04:04:21;;;;;;;16.5;11.4;;;;;;;6.83;100;95506.02;;;;
2021/10/13 04:05:22;;;;;;;16.5;11.4;;;;;;;6.83;100;95506.02;;;;
2021/10/13 04:06:23;;;;;;;16.5;11.4;;;;;;;6.83;100;95506.02;;;;
2021/10/13 04:07:23;;;;;;;16.5;11.4;;;;;;;6.83;100;95506.02;;;;
2021/10/13 04:08:24;;;;;;;16.5;11.4;;;;;;;6.83;100;95506.02;;;;
2021/10/13 04:09:25;;;;;;;16.5;11.4;;;;;;;6.83;100;95506.02;;;;
2021/10/13 04:10:25;;;;;;;16.5;11.4;;;;;;;6.83;100;95506.02;;;;
2021/10/13 04:11:26;;;;;;;16.5;11.4;;;;;;;6.83;100;95506.02;;;;
2021/10/13 04:12:26;;;;;;;16.5;11.4;;;;;;;6.83;100;95506.02;;;;
2021/10/13 04:13:27;;;;;;;16.5;11.4;;;;;;;6.83;100;95506.02;;;;
2021/10/13 04:14:28;;;;;;;16.5;11.4;;;;;;;6.83;100;95506.02;;;;
2021/10/13 04:15:28;;;;;;;16.5;11.4;;;;;;;6.83;100;95506.02;;;;
2021/10/13 04:16:29;;;;;;;16.1;10.55;;;;;;;6.85;100;95529.86;;;;
2021/10/13 04:17:32;;;;;;;16.1;10.55;;;;;;;6.85;100;95529.86;;;;
2021/10/13 04:18:32;;;;;;;16.1;10.55;;;;;;;6.85;100;95529.86;;;;
2021/10/13 04:19:33;;;;;;;16.1;10.55;;;;;;;6.85;100;95529.86;;;;
2021/10/13 04:20:34;;;;;;;16.1;10.55;;;;;;;6.85;100;95529.86;;;;
2021/10/13 04:21:34;;;;;;;16.1;10.55;;;;;;;6.85;100;95529.86;;;;
2021/10/13 04:22:35;;;;;;;16.1;10.55;;;;;;;6.85;100;95529.86;;;;
2021/10/13 04:23:36;;;;;;;16.1;10.55;;;;;;;6.85;100;95529.86;;;;
2021/10/13 04:24:36;;;;;;;16.1;10.55;;;;;;;6.85;100;95529.86;;;;
2021/10/13 04:25:37;;;;;;;16.1;10.55;;;;;;;6.85;100;95529.86;;;;
2021/10/13 04:26:37;;;;;;;16.1;10.55;;;;;;;6.85;100;95529.86;;;;
2021/10/13 04:27:38;;;;;;;15.4;11.15;;;;;;;6.84;100;95542.13;;;;
2021/10/13 04:28:38;;;;;;;15.4;11.15;;;;;;;6.84;100;95542.13;;;;
2021/10/13 04:29:39;;;;;;;15.4;11.15;;;;;;;6.84;100;95542.13;;;;
2021/10/13 04:30:39;;;;;;;15.4;11.15;;;;;;;6.84;100;95542.13;;;;
2021/10/13 04:31:40;;;;;;;15.4;11.15;;;;;;;6.84;100;95542.13;;;;
2021/10/13 04:32:41;;;;;;;15.4;11.15;;;;;;;6.84;100;95542.13;;;;
2021/10/13 04:33:41;;;;;;;15.4;11.15;;;;;;;6.84;100;95542.13;;;;
2021/10/13 04:34:42;;;;;;;15.4;11.15;;;;;;;6.84;100;95542.13;;;;
2021/10/13 04:35:42;;;;;;;15.4;11.15;;;;;;;6.84;100;95542.13;;;;
2021/10/13 04:36:43;;;;;;;15.4;11.15;;;;;;;6.84;100;95542.13;;;;
2021/10/13 04:37:44;;;;;;;14.7;10.85;;;;;;;6.88;100;95542.44;;;;
2021/10/13 04:38:44;;;;;;;14.7;10.85;;;;;;;6.88;100;95542.44;;;;
2021/10/13 04:39:45;;;;;;;14.7;10.85;;;;;;;6.88;100;95542.44;;;;
2021/10/13 04:40:45;;;;;;;14.7;10.85;;;;;;;6.88;100;95542.44;;;;
2021/10/13 04:41:46;;;;;;;14.7;10.85;;;;;;;6.88;100;95542.44;;;;
2021/10/13 04:42:46;;;;;;;14.7;10.85;;;;;;;6.88;100;95542.44;;;;
2021/10/13 04:43:47;;;;;;;14.7;10.85;;;;;;;6.88;100;95542.44;;;;
2021/10/13 04:44:47;;;;;;;14.7;10.85;;;;;;;6.88;100;95542.44;;;;
2021/10/13 04:45:48;;;;;;;14.7;10.85;;;;;;;6.88;100;95542.44;;;;
2021/10/13 04:46:48;;;;;;;14.7;10.85;;;;;;;6.88;100;95542.44;;;;
2021/10/13 04:47:49;;;;;;;14.7;10.85;;;;;;;6.88;100;95542.44;;;;
2021/10/13 04:48:50;;;;;;;16.05;11.35;;;;;;;6.9;100;95559.17;;;;
2021/10/13 04:49:50;;;;;;;16.05;11.35;;;;;;;6.9;100;95559.17;;;;
2021/10/13 04:50:51;;;;;;;16.05;11.35;;;;;;;6.9;100;95559.17;;;;
2021/10/13 04:51:52;;;;;;;16.05;11.35;;;;;;;6.9;100;95559.17;;;;
2021/10/13 04:52:52;;;;;;;16.05;11.35;;;;;;;6.9;100;95559.17;;;;
2021/10/13 04:53:53;;;;;;;16.05;11.35;;;;;;;6.9;100;95559.17;;;;
2021/10/13 04:54:53;;;;;;;16.05;11.35;;;;;;;6.9;100;95559.17;;;;
2021/10/13 04:55:54;;;;;;;16.05;11.35;;;;;;;6.9;100;95559.17;;;;
2021/10/13 04:56:54;;;;;;;16.05;11.35;;;;;;;6.9;100;95559.17;;;;
2021/10/13 04:57:55;;;;;;;16.05;11.35;;;;;;;6.9;100;95559.17;;;;
2021/10/13 04:58:56;;;;;;;16.05;11.35;;;;;;;6.9;100;95559.17;;;;
2021/10/13 04:59:56;;;;;;;18.2;11.95;;;;;;;6.77;100;95566.8;;;;
2021/10/13 05:00:57;;;;;;;18.2;11.95;;;;;;;6.77;100;95566.8;;;;
2021/10/13 05:01:57;;;;;;;18.2;11.95;;;;;;;6.77;100;95566.8;;;;
2021/10/13 05:02:58;;;;;;;18.2;11.95;;;;;;;6.77;100;95566.8;;;;
2021/10/13 05:03:59;;;;;;;18.2;11.95;;;;;;;6.77;100;95566.8;;;;
2021/10/13 05:04:59;;;;;;;18.2;11.95;;;;;;;6.77;100;95566.8;;;;
2021/10/13 05:06:00;;;;;;;18.2;11.95;;;;;;;6.77;100;95566.8;;;;
2021/10/13 05:07:00;;;;;;;18.2;11.95;;;;;;;6.77;100;95566.8;;;;
2021/10/13 05:08:01;;;;;;;18.2;11.95;;;;;;;6.77;100;95566.8;;;;
2021/10/13 05:09:02;;;;;;;18.2;11.95;;;;;;;6.77;100;95566.8;;;;
2021/10/13 05:10:02;;;;;;;16.4;11.85;;;;;;;6.68;100;95573.39;;;;
2021/10/13 05:11:04;;;;;;;16.4;11.85;;;;;;;6.68;100;95573.39;;;;
2021/10/13 05:12:04;;;;;;;16.4;11.85;;;;;;;6.68;100;95573.39;;;;
2021/10/13 05:13:05;;;;;;;16.4;11.85;;;;;;;6.68;100;95573.39;;;;
2021/10/13 05:14:06;;;;;;;16.4;11.85;;;;;;;6.68;100;95573.39;;;;
2021/10/13 05:15:07;;;;;;;16.4;11.85;;;;;;;6.68;100;95573.39;;;;
2021/10/13 05:16:08;;;;;;;16.4;11.85;;;;;;;6.68;100;95573.39;;;;
2021/10/13 05:17:08;;;;;;;16.4;11.85;;;;;;;6.68;100;95573.39;;;;
2021/10/13 05:18:10;;;;;;;16.4;11.85;;;;;;;6.68;100;95573.39;;;;
2021/10/13 05:19:12;;;;;;;16.4;11.85;;;;;;;6.68;100;95573.39;;;;
2021/10/13 05:20:12;;;;;;;16.4;11.85;;;;;;;6.68;100;95573.39;;;;
2021/10/13 05:21:13;;;;;;;15.25;11.5;;;;;;;6.62;100;95584.42;;;;
2021/10/13 05:22:13;;;;;;;15.25;11.5;;;;;;;6.62;100;95584.42;;;;
2021/10/13 05:23:14;;;;;;;15.25;11.5;;;;;;;6.62;100;95584.42;;;;
2021/10/13 05:24:14;;;;;;;15.25;11.5;;;;;;;6.62;100;95584.42;;;;
2021/10/13 05:25:15;;;;;;;15.25;11.5;;;;;;;6.62;100;95584.42;;;;
2021/10/13 05:26:16;;;;;;;15.25;11.5;;;;;;;6.62;100;95584.42;;;;
2021/10/13 05:27:16;;;;;;;15.25;11.5;;;;;;;6.62;100;95584.42;;;;
2021/10/13 05:28:17;;;;;;;15.25;11.5;;;;;;;6.62;100;95584.42;;;;
2021/10/13 05:29:18;;;;;;;15.25;11.5;;;;;;;6.62;100;95584.42;;;;
2021/10/13 05:30:18;;;;;;;15.25;11.5;;;;;;;6.62;100;95584.42;;;;
2021/10/13 05:31:19;;;;;;;13.45;10.35;;;;;;;6.49;100;95605.05;;;;
2021/10/13 05:32:19;;;;;;;13.45;10.35;;;;;;;6.49;100;95605.05;;;;
2021/10/13 05:33:20;;;;;;;13.45;10.35;;;;;;;6.49;100;95605.05;;;;
2021/10/13 05:34:20;;;;;;;13.45;10.35;;;;;;;6.49;100;95605.05;;;;
2021/10/13 05:35:21;;;;;;;13.45;10.35;;;;;;;6.49;100;95605.05;;;;
2021/10/13 05:36:22;;;;;;;13.45;10.35;;;;;;;6.49;100;95605.05;;;;
2021/10/13 05:37:22;;;;;;;13.45;10.35;;;;;;;6.49;100;95605.05;;;;
2021/10/13 05:38:23;;;;;;;13.45;10.35;;;;;;;6.49;100;95605.05;;;;
2021/10/13 05:39:23;;;;;;;13.45;10.35;;;;;;;6.49;100;95605.05;;;;
2021/10/13 05:40:24;;;;;;;13.45;10.35;;;;;;;6.49;100;95605.05;;;;
2021/10/13 05:41:24;;;;;;;13.45;10.35;;;;;;;6.49;100;95605.05;;;;
2021/10/13 05:42:25;;;;;;;15.15;10.85;;;;;;;6.23;100;95609.39;;;;
2021/10/13 05:43:26;;;;;;;15.15;10.85;;;;;;;6.23;100;95609.39;;;;
2021/10/13 05:44:26;;;;;;;15.15;10.85;;;;;;;6.23;100;95609.39;;;;
2021/10/13 05:45:27;;;;;;;15.15;10.85;;;;;;;6.23;100;95609.39;;;;
2021/10/13 05:46:27;;;;;;;15.15;10.85;;;;;;;6.23;100;95609.39;;;;
2021/10/13 05:47:28;;;;;;;15.15;10.85;;;;;;;6.23;100;95609.39;;;;
2021/10/13 05:48:28;;;;;;;15.15;10.85;;;;;;;6.23;100;95609.39;;;;
2021/10/13 05:49:29;;;;;;;15.15;10.85;;;;;;;6.23;100;95609.39;;;;
2021/10/13 05:50:30;;;;;;;15.15;10.85;;;;;;;6.23;100;95609.39;;;;
2021/10/13 05:51:30;;;;;;;15.15;10.85;;;;;;;6.23;100;95609.39;;;;
2021/10/13 05:52:31;;;;;;;16.6;11.5;;;;;;;6.19;100;95619.27;;;;
2021/10/13 05:53:31;;;;;;;16.6;11.5;;;;;;;6.19;100;95619.27;;;;
2021/10/13 05:54:33;;;;;;;16.6;11.5;;;;;;;6.19;100;95619.27;;;;
2021/10/13 05:55:33;;;;;;;16.6;11.5;;;;;;;6.19;100;95619.27;;;;
2021/10/13 05:56:34;;;;;;;16.6;11.5;;;;;;;6.19;100;95619.27;;;;
2021/10/13 05:57:35;;;;;;;16.6;11.5;;;;;;;6.19;100;95619.27;;;;
2021/10/13 05:58:37;;;;;;;16.6;11.5;;;;;;;6.19;100;95619.27;;;;
2021/10/13 05:59:39;;;;;;;16.6;11.5;;;;;;;6.19;100;95619.27;;;;
2021/10/13 06:00:39;;;;;;;16.6;11.5;;;;;;;6.19;100;95619.27;;;;
2021/10/13 06:01:40;;;;;;;16.6;11.5;;;;;;;6.19;100;95619.27;;;;
2021/10/13 06:02:40;;;;;;;16.6;11.5;;;;;;;6.19;100;95619.27;;;;